createdAt,value
2023-05-23T00:02:16.581Z,16.10
2023-05-23T00:04:45.270Z,16.00
2023-05-23T00:09:42.253Z,15.90
2023-05-23T00:12:08.807Z,15.90
2023-05-23T00:14:35.759Z,15.90
2023-05-23T00:17:02.492Z,15.80
2023-05-23T00:19:29.152Z,15.80
2023-05-23T00:21:58.774Z,15.80
2023-05-23T00:24:25.756Z,15.80
2023-05-23T00:26:52.369Z,15.80
2023-05-23T00:29:19.611Z,15.80
2023-05-23T00:31:46.558Z,15.70
2023-05-23T00:34:14.347Z,15.70
2023-05-23T00:36:41.717Z,15.70
2023-05-23T00:39:08.519Z,15.70
2023-05-23T00:41:36.284Z,15.60
2023-05-23T00:44:03.257Z,15.60
2023-05-23T00:46:30.841Z,15.50
2023-05-23T00:48:57.509Z,15.50
2023-05-23T00:51:24.595Z,15.50
2023-05-23T00:53:51.572Z,15.40
2023-05-23T00:56:18.661Z,15.40
2023-05-23T00:58:45.403Z,15.40
2023-05-23T01:01:11.951Z,15.30
2023-05-23T01:03:38.783Z,15.30
2023-05-23T01:06:05.471Z,15.20
2023-05-23T01:08:32.047Z,15.20
2023-05-23T01:11:01.796Z,15.10
2023-05-23T01:13:45.104Z,15.10
2023-05-23T01:16:11.751Z,15.10
2023-05-23T01:18:41.458Z,15.00
2023-05-23T01:21:17.559Z,15.00
2023-05-23T01:24:08.030Z,15.00
2023-05-23T01:26:58.020Z,14.90
2023-05-23T01:29:27.023Z,14.90
2023-05-23T01:31:54.990Z,14.80
2023-05-23T01:34:22.154Z,14.80
2023-05-23T01:36:54.465Z,14.70
2023-05-23T01:39:21.225Z,14.70
2023-05-23T01:41:48.887Z,14.80
2023-05-23T01:44:15.680Z,14.90
2023-05-23T01:46:44.289Z,14.90
2023-05-23T01:49:12.236Z,15.00
2023-05-23T01:51:38.850Z,15.00
2023-05-23T01:54:05.553Z,15.10
2023-05-23T01:56:32.478Z,15.10
2023-05-23T01:58:59.086Z,15.10
2023-05-23T02:01:25.910Z,15.10
2023-05-23T02:03:52.499Z,15.10
2023-05-23T02:06:19.034Z,15.10
2023-05-23T02:08:45.879Z,15.20
2023-05-23T02:11:12.649Z,15.20
2023-05-23T02:13:39.247Z,15.20
2023-05-23T02:16:05.981Z,15.20
2023-05-23T02:18:32.538Z,15.20
2023-05-23T02:20:59.429Z,15.20
2023-05-23T02:23:25.978Z,15.20
2023-05-23T02:25:52.517Z,15.20
2023-05-23T02:28:19.492Z,15.30
2023-05-23T02:30:46.168Z,15.20
2023-05-23T02:33:12.986Z,15.30
2023-05-23T02:35:39.940Z,15.30
2023-05-23T02:38:06.578Z,15.30
2023-05-23T02:40:33.101Z,15.40
2023-05-23T02:42:59.682Z,15.30
2023-05-23T02:45:26.224Z,15.30
2023-05-23T02:47:52.836Z,15.30
2023-05-23T02:50:19.384Z,15.40
2023-05-23T02:52:46.052Z,15.30
2023-05-23T02:55:12.593Z,15.20
2023-05-23T02:57:39.141Z,15.30
2023-05-23T03:00:06.247Z,15.30
2023-05-23T03:02:32.880Z,15.20
2023-05-23T03:04:59.553Z,15.20
2023-05-23T03:07:28.704Z,15.20
2023-05-23T03:09:56.025Z,15.20
2023-05-23T03:12:22.600Z,15.20
2023-05-23T03:14:49.106Z,15.20
2023-05-23T03:17:16.109Z,15.10
2023-05-23T03:19:42.738Z,15.10
2023-05-23T03:22:09.294Z,15.10
2023-05-23T03:24:35.803Z,15.10
2023-05-23T03:27:03.028Z,15.20
2023-05-23T03:29:29.693Z,15.20
2023-05-23T03:31:56.423Z,15.20
2023-05-23T03:34:23.738Z,15.10
2023-05-23T03:36:50.894Z,15.20
2023-05-23T03:39:17.545Z,15.20
2023-05-23T03:41:44.112Z,15.20
2023-05-23T03:44:10.847Z,15.10
2023-05-23T03:46:37.977Z,15.20
2023-05-23T03:49:05.245Z,15.20
2023-05-23T03:51:31.761Z,15.20
2023-05-23T03:53:58.299Z,15.10
2023-05-23T03:56:24.932Z,15.10
2023-05-23T03:58:51.507Z,15.10
2023-05-23T04:01:18.063Z,15.10
2023-05-23T04:03:44.726Z,15.10
2023-05-23T04:06:12.982Z,14.90
2023-05-23T04:08:41.890Z,14.90
2023-05-23T04:11:08.414Z,14.70
2023-05-23T04:13:35.455Z,14.70
2023-05-23T04:16:05.563Z,14.60
2023-05-23T04:18:33.320Z,14.50
2023-05-23T04:21:00.062Z,14.50
2023-05-23T04:23:26.745Z,14.30
2023-05-23T04:25:55.228Z,14.20
2023-05-23T04:28:21.838Z,14.10
2023-05-23T04:30:49.436Z,14.10
2023-05-23T04:33:17.389Z,14.00
2023-05-23T04:35:44.021Z,14.00
2023-05-23T04:38:10.560Z,14.00
2023-05-23T04:40:37.152Z,14.00
2023-05-23T04:43:03.864Z,14.00
2023-05-23T04:45:30.478Z,14.00
2023-05-23T04:47:57.123Z,14.00
2023-05-23T04:50:23.874Z,14.00
2023-05-23T04:52:50.546Z,14.00
2023-05-23T04:55:17.477Z,14.00
2023-05-23T04:57:44.497Z,14.00
2023-05-23T05:00:11.560Z,14.00
2023-05-23T05:02:39.065Z,14.00
2023-05-23T05:05:05.863Z,13.90
2023-05-23T05:07:32.463Z,13.90
2023-05-23T05:10:01.223Z,13.90
2023-05-23T05:12:27.971Z,13.90
2023-05-23T05:14:54.559Z,13.90
2023-05-23T05:17:29.954Z,13.90
2023-05-23T05:19:56.938Z,13.90
2023-05-23T05:22:23.838Z,13.90
2023-05-23T05:24:50.454Z,14.00
2023-05-23T05:27:17.020Z,14.00
2023-05-23T05:29:44.033Z,14.00
2023-05-23T05:32:10.586Z,14.00
2023-05-23T05:34:37.817Z,14.00
2023-05-23T05:37:04.746Z,14.10
2023-05-23T05:39:31.343Z,14.00
2023-05-23T05:41:58.134Z,14.00
2023-05-23T05:44:24.706Z,14.00
2023-05-23T05:46:51.709Z,14.00
2023-05-23T05:49:18.816Z,13.90
2023-05-23T05:51:45.362Z,13.90
2023-05-23T05:54:11.968Z,13.90
2023-05-23T05:56:38.549Z,13.90
2023-05-23T05:59:05.200Z,14.00
2023-05-23T06:01:31.776Z,14.00
2023-05-23T06:03:59.484Z,14.00
2023-05-23T06:06:26.287Z,14.10
2023-05-23T06:08:55.838Z,14.10
2023-05-23T06:11:22.426Z,14.30
2023-05-23T06:13:49.029Z,14.30
2023-05-23T06:16:15.658Z,14.30
2023-05-23T06:18:42.308Z,14.40
2023-05-23T06:21:09.103Z,14.40
2023-05-23T06:23:36.144Z,14.40
2023-05-23T06:26:02.686Z,14.50
2023-05-23T06:28:29.278Z,14.50
2023-05-23T06:30:55.803Z,14.50
2023-05-23T06:33:22.337Z,14.50
2023-05-23T06:35:48.896Z,14.50
2023-05-23T06:38:17.676Z,14.60
2023-05-23T06:40:44.517Z,14.50
2023-05-23T06:43:11.150Z,14.40
2023-05-23T06:45:38.203Z,14.50
2023-05-23T06:48:05.145Z,14.60
2023-05-23T06:50:31.924Z,14.60
2023-05-23T06:52:58.535Z,14.60
2023-05-23T06:55:25.130Z,14.60
2023-05-23T06:57:52.298Z,14.60
2023-05-23T07:00:19.090Z,14.40
2023-05-23T07:02:48.524Z,14.40
2023-05-23T07:05:16.990Z,14.50
2023-05-23T07:07:43.771Z,14.50
2023-05-23T07:10:10.619Z,14.60
2023-05-23T07:12:37.352Z,14.60
2023-05-23T07:15:04.231Z,14.50
2023-05-23T07:17:31.445Z,14.50
2023-05-23T07:19:58.037Z,14.60
2023-05-23T07:22:24.697Z,14.60
2023-05-23T07:24:51.336Z,14.60
2023-05-23T07:27:18.001Z,14.60
2023-05-23T07:29:44.588Z,14.60
2023-05-23T07:32:11.241Z,14.60
2023-05-23T07:34:37.866Z,14.60
2023-05-23T07:37:04.596Z,14.60
2023-05-23T07:39:31.230Z,14.60
2023-05-23T07:41:57.898Z,14.60
2023-05-23T07:44:25.323Z,14.60
2023-05-23T07:46:52.397Z,14.60
2023-05-23T07:49:19.320Z,14.60
2023-05-23T07:51:45.951Z,14.60
2023-05-23T07:54:14.509Z,14.80
2023-05-23T07:56:43.457Z,14.90
2023-05-23T07:59:10.100Z,15.10
2023-05-23T08:01:37.377Z,15.20
2023-05-23T08:04:04.127Z,15.10
2023-05-23T08:06:31.865Z,15.20
2023-05-23T08:08:58.551Z,15.20
2023-05-23T08:11:25.324Z,15.40
2023-05-23T08:13:51.850Z,15.30
2023-05-23T08:16:18.762Z,15.50
2023-05-23T08:18:45.374Z,15.50
2023-05-23T08:21:11.981Z,15.50
2023-05-23T08:23:38.617Z,15.40
2023-05-23T08:26:05.204Z,15.30
2023-05-23T08:28:34.608Z,15.40
2023-05-23T08:31:01.290Z,15.30
2023-05-23T08:33:28.132Z,15.30
2023-05-23T08:35:54.836Z,15.40
2023-05-23T08:38:21.957Z,15.50
2023-05-23T08:40:54.654Z,15.50
2023-05-23T08:43:21.470Z,15.40
2023-05-23T08:45:49.136Z,15.50
2023-05-23T08:50:47.435Z,15.50
2023-05-23T08:53:20.508Z,15.40
2023-05-23T08:55:48.580Z,15.30
2023-05-23T08:58:15.672Z,15.30
2023-05-23T09:00:43.246Z,15.30
2023-05-23T09:03:11.649Z,15.40
2023-05-23T09:05:38.392Z,15.40
2023-05-23T09:08:05.080Z,15.20
2023-05-23T09:10:31.748Z,15.30
2023-05-23T09:12:58.480Z,15.40
2023-05-23T09:15:25.953Z,15.40
2023-05-23T09:17:52.599Z,15.20
2023-05-23T09:20:19.280Z,15.20
2023-05-23T09:22:47.802Z,15.20
2023-05-23T09:25:14.673Z,15.30
2023-05-23T09:27:42.158Z,15.30
2023-05-23T09:30:10.207Z,15.40
2023-05-23T09:32:37.179Z,15.30
2023-05-23T09:35:05.240Z,15.10
2023-05-23T09:37:34.045Z,15.00
2023-05-23T09:40:01.157Z,14.70
2023-05-23T09:42:34.281Z,14.70
2023-05-23T09:45:03.836Z,14.60
2023-05-23T09:47:31.128Z,14.60
2023-05-23T09:49:57.888Z,14.60
2023-05-23T09:52:24.613Z,14.60
2023-05-23T09:54:51.255Z,14.60
2023-05-23T09:57:19.071Z,14.70
2023-05-23T09:59:50.112Z,14.90
2023-05-23T10:02:17.193Z,15.10
2023-05-23T10:04:44.233Z,15.10
2023-05-23T10:07:17.226Z,15.30
2023-05-23T10:09:47.440Z,15.30
2023-05-23T10:12:29.115Z,15.40
2023-05-23T10:14:57.541Z,15.30
2023-05-23T10:17:45.319Z,15.20
2023-05-23T10:20:14.968Z,14.90
2023-05-23T10:22:42.096Z,14.80
2023-05-23T10:25:10.425Z,14.70
2023-05-23T10:27:38.134Z,14.60
2023-05-23T10:30:05.707Z,14.50
2023-05-23T10:32:32.761Z,14.50
2023-05-23T10:34:59.366Z,14.40
2023-05-23T10:37:46.231Z,14.50
2023-05-23T10:40:12.972Z,14.60
2023-05-23T10:42:51.928Z,14.50
2023-05-23T10:45:19.751Z,14.40
2023-05-23T10:47:50.180Z,14.30
2023-05-23T10:50:34.430Z,14.40
2023-05-23T10:53:02.798Z,14.20
2023-05-23T10:55:36.590Z,14.30
2023-05-23T10:58:11.041Z,14.40
2023-05-23T11:00:38.133Z,14.40
2023-05-23T11:03:09.094Z,14.50
2023-05-23T11:05:38.740Z,14.80
2023-05-23T11:08:08.957Z,14.90
2023-05-23T11:10:57.467Z,15.00
2023-05-23T11:13:24.407Z,15.10
2023-05-23T11:15:51.711Z,15.20
2023-05-23T11:18:26.956Z,15.30
2023-05-23T11:20:54.505Z,15.40
2023-05-23T11:23:21.890Z,15.80
2023-05-23T11:25:49.784Z,16.40
2023-05-23T11:28:17.311Z,17.60
2023-05-23T11:30:44.269Z,17.80
2023-05-23T11:33:20.766Z,18.40
2023-05-23T11:35:48.478Z,17.70
2023-05-23T11:38:16.648Z,17.70
2023-05-23T11:40:44.930Z,17.20
2023-05-23T11:43:13.874Z,16.90
2023-05-23T11:45:40.790Z,17.10
2023-05-23T11:48:11.935Z,16.70
2023-05-23T11:50:54.462Z,16.80
2023-05-23T11:53:22.198Z,16.50
2023-05-23T11:55:49.575Z,16.60
2023-05-23T11:58:16.508Z,16.10
2023-05-23T12:00:44.085Z,16.10
2023-05-23T12:03:11.789Z,16.60
2023-05-23T12:05:38.607Z,16.80
2023-05-23T12:08:05.213Z,17.60
2023-05-23T12:10:31.855Z,18.50
2023-05-23T12:12:58.500Z,18.60
2023-05-23T12:15:25.770Z,18.90
2023-05-23T12:17:53.467Z,18.00
2023-05-23T12:20:20.507Z,17.50
2023-05-23T12:22:47.009Z,17.70
2023-05-23T12:25:13.639Z,18.00
2023-05-23T12:27:41.625Z,18.00
2023-05-23T12:30:09.750Z,18.20
2023-05-23T12:32:40.008Z,18.60
2023-05-23T12:35:07.510Z,17.50
2023-05-23T12:37:34.156Z,17.60
2023-05-23T12:40:14.275Z,17.20
2023-05-23T12:42:44.282Z,17.40
2023-05-23T12:45:13.422Z,16.80
2023-05-23T12:47:40.027Z,17.70
2023-05-23T12:50:06.832Z,17.30
2023-05-23T12:52:33.387Z,17.50
2023-05-23T12:54:59.974Z,18.00
2023-05-23T12:57:26.673Z,17.40
2023-05-23T12:59:53.284Z,18.70
2023-05-23T13:02:19.887Z,19.80
2023-05-23T13:04:46.545Z,18.30
2023-05-23T13:07:13.346Z,17.70
2023-05-23T13:09:40.045Z,17.60
2023-05-23T13:12:06.720Z,16.80
2023-05-23T13:14:33.336Z,16.10
2023-05-23T13:16:59.932Z,16.10
2023-05-23T13:19:26.621Z,16.30
2023-05-23T13:21:53.391Z,16.30
2023-05-23T13:24:19.926Z,16.40
2023-05-23T13:26:46.481Z,16.20
2023-05-23T13:29:13.081Z,16.20
2023-05-23T13:31:39.823Z,16.20
2023-05-23T13:34:06.580Z,16.00
2023-05-23T13:36:33.818Z,16.10
2023-05-23T13:39:00.441Z,16.40
2023-05-23T13:41:27.385Z,16.50
2023-05-23T13:43:54.263Z,16.60
2023-05-23T13:46:20.855Z,17.20
2023-05-23T13:48:47.457Z,18.70
2023-05-23T13:51:14.074Z,18.90
2023-05-23T13:53:40.775Z,19.10
2023-05-23T13:56:07.331Z,18.50
2023-05-23T13:58:33.900Z,18.90
2023-05-23T14:01:00.476Z,19.60
2023-05-23T14:03:27.282Z,19.20
2023-05-23T14:05:53.981Z,17.80
2023-05-23T14:08:20.945Z,17.20
2023-05-23T14:10:47.475Z,17.00
2023-05-23T14:13:14.228Z,17.40
2023-05-23T14:15:42.262Z,17.80
2023-05-23T14:18:09.399Z,17.40
2023-05-23T14:20:37.825Z,17.60
2023-05-23T14:23:04.404Z,17.00
2023-05-23T14:25:31.067Z,17.20
2023-05-23T14:27:57.612Z,17.90
2023-05-23T14:30:24.202Z,19.10
2023-05-23T14:32:50.988Z,19.10
2023-05-23T14:35:17.583Z,18.30
2023-05-23T14:37:45.194Z,17.70
2023-05-23T14:40:12.559Z,18.50
2023-05-23T14:42:39.143Z,20.20
2023-05-23T14:45:06.304Z,19.70
2023-05-23T14:47:32.906Z,20.40
2023-05-23T14:49:59.886Z,20.90
2023-05-23T14:52:26.732Z,21.50
2023-05-23T14:54:53.307Z,21.20
2023-05-23T14:57:19.864Z,20.20
2023-05-23T14:59:46.645Z,19.50
2023-05-23T15:02:13.330Z,19.50
2023-05-23T15:04:39.953Z,19.60
2023-05-23T15:07:06.526Z,18.90
2023-05-23T15:09:33.097Z,18.50
2023-05-23T15:11:59.844Z,18.90
2023-05-23T15:14:29.659Z,18.70
2023-05-23T15:16:56.653Z,19.80
2023-05-23T15:19:32.044Z,21.60
2023-05-23T15:21:58.746Z,23.70
2023-05-23T15:24:27.598Z,23.20
2023-05-23T15:26:56.823Z,24.10
2023-05-23T15:29:26.831Z,24.50
2023-05-23T15:31:53.786Z,24.00
2023-05-23T15:34:20.710Z,22.40
2023-05-23T15:36:47.580Z,22.00
2023-05-23T15:39:14.240Z,21.10
2023-05-23T15:41:40.914Z,19.70
2023-05-23T15:44:07.483Z,19.20
2023-05-23T15:46:34.119Z,19.50
2023-05-23T15:49:07.550Z,20.20
2023-05-23T15:51:40.247Z,19.60
2023-05-23T15:54:06.798Z,19.10
2023-05-23T15:56:33.402Z,19.00
2023-05-23T15:58:59.941Z,19.70
2023-05-23T16:01:26.562Z,19.40
2023-05-23T16:03:53.191Z,20.80
2023-05-23T16:06:19.928Z,20.40
2023-05-23T16:08:46.725Z,20.40
2023-05-23T16:11:13.387Z,20.10
2023-05-23T16:13:40.035Z,20.70
2023-05-23T16:16:06.885Z,20.60
2023-05-23T16:18:33.784Z,20.20
2023-05-23T16:21:00.421Z,20.40
2023-05-23T16:23:26.967Z,19.90
2023-05-23T16:25:53.508Z,19.30
2023-05-23T16:28:20.437Z,18.90
2023-05-23T16:30:47.048Z,18.30
2023-05-23T16:33:13.656Z,18.50
2023-05-23T16:35:40.636Z,18.70
2023-05-23T16:38:07.329Z,18.90
2023-05-23T16:40:33.868Z,18.80
2023-05-23T16:43:00.777Z,17.90
2023-05-23T16:45:27.464Z,17.80
2023-05-23T16:47:54.022Z,17.80
2023-05-23T16:50:21.004Z,17.50
2023-05-23T16:52:47.570Z,17.60
2023-05-23T16:55:14.166Z,17.30
2023-05-23T16:57:42.248Z,17.60
2023-05-23T17:00:09.082Z,17.40
2023-05-23T17:02:36.092Z,17.30
2023-05-23T17:05:03.605Z,17.10
2023-05-23T17:07:30.700Z,17.10
2023-05-23T17:09:57.363Z,17.20
2023-05-23T17:12:24.053Z,17.10
2023-05-23T17:14:50.804Z,17.00
2023-05-23T17:17:17.427Z,16.80
2023-05-23T17:19:52.112Z,16.90
2023-05-23T17:22:18.880Z,16.90
2023-05-23T17:24:45.521Z,17.00
2023-05-23T17:27:12.076Z,17.00
2023-05-23T17:29:38.666Z,16.80
2023-05-23T17:32:05.575Z,16.90
2023-05-23T17:34:32.262Z,16.70
2023-05-23T17:36:58.892Z,16.70
2023-05-23T17:39:25.445Z,16.60
2023-05-23T17:41:52.499Z,16.70
2023-05-23T17:44:19.568Z,16.60
2023-05-23T17:46:46.218Z,16.40
2023-05-23T17:49:12.806Z,16.40
2023-05-23T17:51:39.376Z,16.50
2023-05-23T17:54:06.094Z,16.50
2023-05-23T17:56:32.764Z,16.20
2023-05-23T17:59:02.325Z,16.20
2023-05-23T18:01:29.155Z,16.20
2023-05-23T18:03:55.849Z,16.30
2023-05-23T18:06:22.478Z,16.20
2023-05-23T18:08:49.100Z,16.20
2023-05-23T18:11:15.772Z,16.30
2023-05-23T18:13:42.512Z,16.20
2023-05-23T18:16:09.314Z,16.50
2023-05-23T18:18:35.939Z,16.30
2023-05-23T18:21:02.693Z,16.30
2023-05-23T18:23:29.358Z,16.30
2023-05-23T18:25:55.948Z,16.10
2023-05-23T18:28:22.586Z,16.30
2023-05-23T18:30:49.430Z,16.10
2023-05-23T18:33:16.402Z,16.20
2023-05-23T18:35:43.824Z,16.20
2023-05-23T18:38:10.846Z,15.90
2023-05-23T18:40:37.414Z,15.60
2023-05-23T18:43:03.951Z,15.40
2023-05-23T18:45:30.602Z,15.40
2023-05-23T18:47:57.768Z,15.30
2023-05-23T18:50:24.355Z,15.30
2023-05-23T18:52:51.003Z,15.30
2023-05-23T18:55:17.585Z,15.20
2023-05-23T18:57:44.140Z,15.10
2023-05-23T19:00:11.112Z,15.10
2023-05-23T19:02:43.539Z,15.10
2023-05-23T19:05:10.313Z,15.00
2023-05-23T19:07:37.197Z,14.90
2023-05-23T19:10:03.877Z,14.80
2023-05-23T19:12:30.524Z,14.80
2023-05-23T19:14:58.513Z,14.70
2023-05-23T19:17:25.477Z,14.70
2023-05-23T19:19:52.125Z,14.60
2023-05-23T19:22:18.765Z,14.50
2023-05-23T19:24:45.468Z,14.40
2023-05-23T19:27:12.098Z,14.40
2023-05-23T19:29:38.716Z,14.30
2023-05-23T19:32:05.388Z,14.30
2023-05-23T19:34:32.867Z,14.20
2023-05-23T19:37:00.906Z,14.20
2023-05-23T19:39:27.460Z,14.20
2023-05-23T19:41:53.981Z,14.10
2023-05-23T19:44:20.697Z,14.10
2023-05-23T19:46:47.294Z,14.00
2023-05-23T19:49:15.104Z,14.10
2023-05-23T19:51:41.721Z,14.10
2023-05-23T19:54:08.319Z,14.00
2023-05-23T19:56:36.070Z,13.90
2023-05-23T19:59:02.653Z,13.90
2023-05-23T20:01:30.766Z,13.90
2023-05-23T20:03:57.413Z,13.90
2023-05-23T20:06:24.046Z,13.80
2023-05-23T20:08:50.696Z,13.80
2023-05-23T20:11:17.358Z,13.70
2023-05-23T20:13:43.917Z,13.80
2023-05-23T20:16:10.527Z,13.70
2023-05-23T20:18:37.172Z,13.60
2023-05-23T20:21:05.354Z,13.60
2023-05-23T20:23:32.307Z,13.60
2023-05-23T20:25:59.092Z,13.60
2023-05-23T20:28:25.894Z,13.60
2023-05-23T20:30:52.642Z,13.50
2023-05-23T20:33:20.025Z,13.50
2023-05-23T20:35:48.333Z,13.50
2023-05-23T20:38:15.246Z,13.50
2023-05-23T20:40:43.883Z,13.40
2023-05-23T20:43:10.495Z,13.40
2023-05-23T20:45:37.150Z,13.30
2023-05-23T20:48:03.779Z,13.30
2023-05-23T20:50:32.299Z,13.20
2023-05-23T20:53:02.049Z,13.20
2023-05-23T20:55:29.431Z,13.20
2023-05-23T20:57:56.083Z,13.10
2023-05-23T21:00:22.655Z,13.10
2023-05-23T21:02:49.395Z,13.10
2023-05-23T21:05:16.290Z,13.00
2023-05-23T21:07:42.920Z,13.00
2023-05-23T21:10:09.565Z,13.00
2023-05-23T21:12:36.140Z,12.90
2023-05-23T21:15:03.242Z,12.80
2023-05-23T21:17:29.940Z,12.80
2023-05-23T21:19:56.513Z,12.70
2023-05-23T21:22:23.103Z,12.70
2023-05-23T21:24:50.394Z,12.60
2023-05-23T21:27:17.171Z,12.60
2023-05-23T21:29:43.827Z,12.50
2023-05-23T21:32:10.470Z,12.50
2023-05-23T21:34:37.014Z,12.40
2023-05-23T21:37:03.662Z,12.40
2023-05-23T21:39:39.590Z,12.30
2023-05-23T21:42:14.174Z,12.30
2023-05-23T21:44:41.078Z,12.30
2023-05-23T21:47:08.118Z,12.20
2023-05-23T21:49:35.434Z,12.20
2023-05-23T21:52:02.409Z,12.20
2023-05-23T21:54:28.950Z,12.10
2023-05-23T21:56:55.628Z,12.10
2023-05-23T21:59:22.287Z,12.00
2023-05-23T22:01:48.990Z,12.00
2023-05-23T22:04:18.985Z,11.90
2023-05-23T22:06:45.812Z,11.90
2023-05-23T22:09:13.024Z,11.80
2023-05-23T22:11:39.856Z,11.80
2023-05-23T22:14:06.486Z,11.80
2023-05-23T22:16:33.271Z,11.70
2023-05-23T22:19:00.493Z,11.60
2023-05-23T22:21:27.150Z,11.60
2023-05-23T22:23:53.741Z,11.60
2023-05-23T22:26:20.443Z,11.50
2023-05-23T22:28:47.168Z,11.50
2023-05-23T22:31:14.005Z,11.40
2023-05-23T22:33:41.094Z,11.40
2023-05-23T22:36:07.950Z,11.30
2023-05-23T22:38:34.595Z,11.30
2023-05-23T22:41:01.219Z,11.30
2023-05-23T22:43:28.932Z,11.20
2023-05-23T22:45:55.885Z,11.20
2023-05-23T22:48:24.695Z,11.20
2023-05-23T22:50:54.799Z,11.20
2023-05-23T22:53:22.596Z,11.20
2023-05-23T22:55:49.515Z,11.10
2023-05-23T22:58:16.069Z,11.10
2023-05-23T23:00:43.606Z,11.10
2023-05-23T23:03:10.830Z,11.00
2023-05-23T23:05:37.573Z,11.00
2023-05-23T23:08:04.102Z,11.00
2023-05-23T23:10:30.705Z,10.90
2023-05-23T23:12:57.286Z,10.90
2023-05-23T23:15:24.765Z,10.80
2023-05-23T23:17:51.515Z,10.80
2023-05-23T23:20:19.399Z,10.80
2023-05-23T23:22:47.013Z,10.80
2023-05-23T23:25:14.099Z,10.70
2023-05-23T23:27:40.809Z,10.70
2023-05-23T23:30:08.559Z,10.70
2023-05-23T23:32:35.241Z,10.70
2023-05-23T23:35:01.906Z,10.60
2023-05-23T23:37:28.417Z,10.60
2023-05-23T23:39:55.009Z,10.50
2023-05-23T23:42:21.528Z,10.50
2023-05-23T23:44:48.177Z,10.50
2023-05-23T23:47:14.705Z,10.40
2023-05-23T23:49:42.167Z,10.40
2023-05-23T23:52:08.981Z,10.40
2023-05-23T23:54:35.746Z,10.40
2023-05-23T23:57:02.299Z,10.30
2023-05-23T23:59:28.888Z,10.30
